createdAt,value
2018-06-01T00:00:01.660Z,99.99
2018-06-01T00:01:01.621Z,99.99
2018-06-01T00:02:01.750Z,99.99
2018-06-01T00:03:01.584Z,99.99
2018-06-01T00:04:01.573Z,99.99
2018-06-01T00:05:01.527Z,99.99
2018-06-01T00:06:01.545Z,99.99
2018-06-01T00:07:01.498Z,99.99
2018-06-01T00:08:01.579Z,99.99
2018-06-01T00:09:01.445Z,99.99
2018-06-01T00:10:01.428Z,99.99
2018-06-01T00:11:01.374Z,99.99
2018-06-01T00:12:01.364Z,99.99
2018-06-01T00:13:01.353Z,99.99
2018-06-01T00:14:01.407Z,99.99
2018-06-01T00:15:01.290Z,99.99
2018-06-01T00:16:01.268Z,99.99
2018-06-01T00:17:01.241Z,99.99
2018-06-01T00:18:01.210Z,99.99
2018-06-01T00:19:01.282Z,99.99
2018-06-01T00:20:01.191Z,99.99
2018-06-01T00:21:01.138Z,99.99
2018-06-01T00:22:01.670Z,99.02
2018-06-01T00:23:01.093Z,98.44
2018-06-01T00:24:01.258Z,97.86
2018-06-01T00:25:01.063Z,97.28
2018-06-01T00:26:01.041Z,97.18
2018-06-01T00:27:01.075Z,96.60
2018-06-01T00:28:01.044Z,96.60
2018-06-01T00:29:01.552Z,96.11
2018-06-01T00:30:01.030Z,95.92
2018-06-01T00:31:00.974Z,95.53
2018-06-01T00:32:00.931Z,94.95
2018-06-01T00:33:00.856Z,94.17
2018-06-01T00:34:00.837Z,94.66
2018-06-01T00:35:00.889Z,94.46
2018-06-01T00:36:00.801Z,93.30
2018-06-01T00:37:00.751Z,93.40
2018-06-01T00:38:00.731Z,92.91
2018-06-01T00:39:00.694Z,92.52
2018-06-01T00:40:00.803Z,92.04
2018-06-01T00:41:00.640Z,91.75
2018-06-01T00:42:00.613Z,91.79
2018-06-01T00:43:00.613Z,91.65
2018-06-01T00:44:00.583Z,91.46
2018-06-01T00:45:00.660Z,91.36
2018-06-01T00:46:00.556Z,90.92
2018-06-01T00:47:00.513Z,90.00
2018-06-01T00:48:00.477Z,89.17
2018-06-01T00:49:00.463Z,89.42
2018-06-01T00:50:00.437Z,89.37
2018-06-01T00:51:01.045Z,89.95
2018-06-01T00:52:00.952Z,90.30
2018-06-01T00:53:00.386Z,89.37
2018-06-01T00:54:00.340Z,88.16
2018-06-01T00:55:00.305Z,88.35
2018-06-01T00:56:00.293Z,87.77
2018-06-01T00:57:00.340Z,86.16
2018-06-01T00:58:00.243Z,86.51
2018-06-01T00:59:00.191Z,86.51
2018-06-01T01:00:00.169Z,85.74
2018-06-01T01:01:00.712Z,85.44
2018-06-01T01:02:00.227Z,84.67
2018-06-01T01:03:00.675Z,85.44
2018-06-01T01:04:00.071Z,85.54
2018-06-01T01:05:00.045Z,84.86
2018-06-01T01:06:00.046Z,84.86
2018-06-01T01:07:00.052Z,85.15
2018-06-01T01:08:00.087Z,84.96
2018-06-01T01:08:59.965Z,84.19
2018-06-01T01:10:00.459Z,84.09
2018-06-01T01:10:59.907Z,83.89
2018-06-01T01:12:00.011Z,83.60
2018-06-01T01:12:59.982Z,83.22
2018-06-01T01:14:00.408Z,83.02
2018-06-01T01:14:59.833Z,82.44
2018-06-01T01:15:59.827Z,82.34
2018-06-01T01:16:59.817Z,81.95
2018-06-01T01:18:00.389Z,81.47
2018-06-01T01:18:59.707Z,81.57
2018-06-01T01:19:59.699Z,81.57
2018-06-01T01:20:59.653Z,81.27
2018-06-01T01:21:59.632Z,80.98
2018-06-01T01:22:59.715Z,80.60
2018-06-01T01:23:59.702Z,80.30
2018-06-01T01:24:59.573Z,79.82
2018-06-01T01:25:59.532Z,79.33
2018-06-01T01:26:59.516Z,78.85
2018-06-01T01:27:59.605Z,79.24
2018-06-01T01:29:00.021Z,77.98
2018-06-01T01:29:59.454Z,77.01
2018-06-01T01:30:59.483Z,76.91
2018-06-01T01:31:59.395Z,76.72
2018-06-01T01:32:59.874Z,76.42
2018-06-01T01:33:59.456Z,76.32
2018-06-01T01:34:59.337Z,76.52
2018-06-01T01:35:59.300Z,76.19
2018-06-01T01:36:59.264Z,75.65
2018-06-01T01:37:59.238Z,75.55
2018-06-01T01:38:59.302Z,75.26
2018-06-01T01:39:59.180Z,74.87
2018-06-01T01:40:59.179Z,74.54
2018-06-01T01:41:59.150Z,74.35
2018-06-01T01:42:59.146Z,74.29
2018-06-01T01:43:59.158Z,73.77
2018-06-01T01:44:59.159Z,73.80
2018-06-01T01:45:59.051Z,73.86
2018-06-01T01:46:59.018Z,72.80
2018-06-01T01:47:59.002Z,72.74
2018-06-01T01:48:58.990Z,72.93
2018-06-01T01:49:59.133Z,72.83
2018-06-01T01:50:58.953Z,72.74
2018-06-01T01:51:59.019Z,72.25
2018-06-01T01:52:58.861Z,72.35
2018-06-01T01:53:58.844Z,72.74
2018-06-01T01:54:58.956Z,71.86
2018-06-01T01:55:58.817Z,72.06
2018-06-01T01:56:58.756Z,72.25
2018-06-01T01:57:58.767Z,71.86
2018-06-01T01:58:58.832Z,71.86
2018-06-01T01:59:58.807Z,71.96
2018-06-01T02:00:58.684Z,70.51
2018-06-01T02:01:58.706Z,69.93
2018-06-01T02:02:58.616Z,69.54
2018-06-01T02:03:58.626Z,69.15
2018-06-01T02:04:58.717Z,69.54
2018-06-01T02:05:58.547Z,68.57
2018-06-01T02:06:58.540Z,68.57
2018-06-01T02:07:58.505Z,68.66
2018-06-01T02:08:58.464Z,68.57
2018-06-01T02:09:58.472Z,68.08
2018-06-01T02:10:58.543Z,67.79
2018-06-01T02:11:58.401Z,67.50
2018-06-01T02:12:58.374Z,67.60
2018-06-01T02:13:58.349Z,67.60
2018-06-01T02:14:58.326Z,67.60
2018-06-01T02:15:58.294Z,68.08
2018-06-01T02:16:58.365Z,68.08
2018-06-01T02:17:58.321Z,67.99
2018-06-01T02:18:58.216Z,67.21
2018-06-01T02:19:58.239Z,67.60
2018-06-01T02:20:58.156Z,67.60
2018-06-01T02:21:58.206Z,67.31
2018-06-01T02:22:58.305Z,65.95
2018-06-01T02:23:58.112Z,65.47
2018-06-01T02:24:58.071Z,65.56
2018-06-01T02:25:58.041Z,66.60
2018-06-01T02:26:58.021Z,65.37
2018-06-01T02:27:58.574Z,65.27
2018-06-01T02:28:57.972Z,64.59
2018-06-01T02:29:58.050Z,64.37
2018-06-01T02:30:57.948Z,63.69
2018-06-01T02:31:57.916Z,62.82
2018-06-01T02:32:57.974Z,62.82
2018-06-01T02:33:57.918Z,61.46
2018-06-01T02:35:57.800Z,61.26
2018-06-01T02:36:57.796Z,60.97
2018-06-01T02:37:58.133Z,60.85
2018-06-01T02:38:58.302Z,60.78
2018-06-01T02:39:57.709Z,60.07
2018-06-01T02:40:57.665Z,60.10
2018-06-01T02:41:57.664Z,60.17
2018-06-01T02:42:57.797Z,60.17
2018-06-01T02:43:57.597Z,59.78
2018-06-01T02:44:57.571Z,59.39
2018-06-01T02:45:57.529Z,58.91
2018-06-01T02:46:57.525Z,59.10
2018-06-01T02:47:57.525Z,58.81
2018-06-01T02:48:57.554Z,58.04
2018-06-01T02:49:57.468Z,57.94
2018-06-01T02:50:57.478Z,57.75
2018-06-01T02:51:57.405Z,57.94
2018-06-01T02:52:57.385Z,57.55
2018-06-01T02:53:57.342Z,57.36
2018-06-01T02:54:57.432Z,57.45
2018-06-01T02:55:57.278Z,57.26
2018-06-01T02:56:57.296Z,57.17
2018-06-01T02:57:57.264Z,56.97
2018-06-01T02:58:57.255Z,56.77
2018-06-01T02:59:57.326Z,56.49
2018-06-01T03:00:57.147Z,56.59
2018-06-01T03:01:57.143Z,55.90
2018-06-01T03:02:57.148Z,56.20
2018-06-01T03:03:57.109Z,55.90
2018-06-01T03:04:57.195Z,56.10
2018-06-01T03:05:57.026Z,56.10
2018-06-01T03:06:57.023Z,56.49
2018-06-01T03:07:56.981Z,56.39
2018-06-01T03:08:56.979Z,55.58
2018-06-01T03:09:57.033Z,55.78
2018-06-01T03:10:57.488Z,55.40
2018-06-01T03:11:56.894Z,55.40
2018-06-01T03:12:56.869Z,55.30
2018-06-01T03:13:56.842Z,55.58
2018-06-01T03:14:56.944Z,54.91
2018-06-01T03:15:56.844Z,54.33
2018-06-01T03:16:57.299Z,54.23
2018-06-01T03:17:56.770Z,54.26
2018-06-01T03:18:56.728Z,54.71
2018-06-01T03:19:56.763Z,54.81
2018-06-01T03:20:56.723Z,54.33
2018-06-01T03:21:56.623Z,54.43
2018-06-01T03:22:56.607Z,54.33
2018-06-01T03:23:56.555Z,54.23
2018-06-01T03:24:56.642Z,53.75
2018-06-01T03:25:57.067Z,53.45
2018-06-01T03:26:56.531Z,53.75
2018-06-01T03:27:56.461Z,53.55
2018-06-01T03:28:56.520Z,53.17
2018-06-01T03:29:56.438Z,53.17
2018-06-01T03:30:56.486Z,53.17
2018-06-01T03:31:56.451Z,53.85
2018-06-01T03:32:56.371Z,53.75
2018-06-01T03:33:56.314Z,53.55
2018-06-01T03:34:56.298Z,52.87
2018-06-01T03:35:56.297Z,52.58
2018-06-01T03:36:56.374Z,52.39
2018-06-01T03:37:56.223Z,52.49
2018-06-01T03:38:56.203Z,52.78
2018-06-01T03:39:56.205Z,52.78
2018-06-01T03:40:56.158Z,52.78
2018-06-01T03:41:56.244Z,52.39
2018-06-01T03:42:56.090Z,51.72
2018-06-01T03:43:56.135Z,51.90
2018-06-01T03:44:56.029Z,51.81
2018-06-01T03:45:56.015Z,51.72
2018-06-01T03:46:56.112Z,51.59
2018-06-01T03:47:55.986Z,51.20
2018-06-01T03:48:55.943Z,51.81
2018-06-01T03:49:55.911Z,51.01
2018-06-01T03:50:55.895Z,51.10
2018-06-01T03:51:55.968Z,50.62
2018-06-01T03:52:55.947Z,50.72
2018-06-01T03:53:55.837Z,50.62
2018-06-01T03:54:55.770Z,50.43
2018-06-01T03:55:55.948Z,50.24
2018-06-01T03:56:55.860Z,49.75
2018-06-01T03:57:55.708Z,50.33
2018-06-01T03:58:55.745Z,49.58
2018-06-01T03:59:55.671Z,49.85
2018-06-01T04:00:55.663Z,49.65
2018-06-01T04:01:55.699Z,49.97
2018-06-01T04:02:55.683Z,49.65
2018-06-01T04:03:55.532Z,49.39
2018-06-01T04:04:55.587Z,49.17
2018-06-01T04:05:55.507Z,48.81
2018-06-01T04:06:55.480Z,49.27
2018-06-01T04:07:55.590Z,49.10
2018-06-01T04:08:55.438Z,48.79
2018-06-01T04:09:55.407Z,48.61
2018-06-01T04:10:55.381Z,48.01
2018-06-01T04:11:55.346Z,47.72
2018-06-01T04:12:55.335Z,47.62
2018-06-01T04:13:55.388Z,47.14
2018-06-01T04:14:55.257Z,47.14
2018-06-01T04:15:55.280Z,47.14
2018-06-01T04:16:55.233Z,46.75
2018-06-01T04:17:55.189Z,46.46
2018-06-01T04:18:55.284Z,46.39
2018-06-01T04:19:55.117Z,46.08
2018-06-01T04:20:55.105Z,46.36
2018-06-01T04:21:55.115Z,46.17
2018-06-01T04:22:55.056Z,46.36
2018-06-01T04:23:55.151Z,45.88
2018-06-01T04:24:55.006Z,45.78
2018-06-01T04:25:55.006Z,45.78
2018-06-01T04:26:54.959Z,45.78
2018-06-01T04:27:54.936Z,45.49
2018-06-01T04:28:55.011Z,45.59
2018-06-01T04:29:54.881Z,45.49
2018-06-01T04:30:54.920Z,45.59
2018-06-01T04:31:54.827Z,45.10
2018-06-01T04:32:54.793Z,45.40
2018-06-01T04:33:54.905Z,45.10
2018-06-01T04:34:54.745Z,45.40
2018-06-01T04:35:54.718Z,45.10
2018-06-01T04:36:54.705Z,45.10
2018-06-01T04:37:54.679Z,44.91
2018-06-01T04:38:54.698Z,44.72
2018-06-01T04:39:54.712Z,44.91
2018-06-01T04:40:54.659Z,44.81
2018-06-01T04:41:54.561Z,44.81
2018-06-01T04:42:54.548Z,44.33
2018-06-01T04:43:54.514Z,44.62
2018-06-01T04:44:54.474Z,44.91
2018-06-01T04:45:54.542Z,44.91
2018-06-01T04:46:54.449Z,44.62
2018-06-01T04:47:54.498Z,44.04
2018-06-01T04:48:54.393Z,44.33
2018-06-01T04:49:54.367Z,44.43
2018-06-01T04:50:54.412Z,44.33
2018-06-01T04:51:54.411Z,44.23
2018-06-01T04:52:54.287Z,44.13
2018-06-01T04:53:54.271Z,43.75
2018-06-01T04:54:54.261Z,43.37
2018-06-01T04:55:54.202Z,43.27
2018-06-01T04:56:54.278Z,43.46
2018-06-01T04:57:54.163Z,43.37
2018-06-01T04:58:54.108Z,43.27
2018-06-01T04:59:54.109Z,43.27
2018-06-01T05:00:54.064Z,43.27
2018-06-01T05:01:54.170Z,43.46
2018-06-01T05:02:54.031Z,43.27
2018-06-01T05:03:54.018Z,42.88
2018-06-01T05:04:53.949Z,42.78
2018-06-01T05:05:53.954Z,43.17
2018-06-01T05:06:54.030Z,43.17
2018-06-01T05:07:53.880Z,43.27
2018-06-01T05:08:53.929Z,43.37
2018-06-01T05:09:53.875Z,43.37
2018-06-01T05:10:53.811Z,43.27
2018-06-01T05:11:53.878Z,42.59
2018-06-01T05:12:53.769Z,42.68
2018-06-01T05:13:53.769Z,42.88
2018-06-01T05:14:53.701Z,42.68
2018-06-01T05:15:53.672Z,42.78
2018-06-01T05:16:53.727Z,43.27
2018-06-01T05:17:53.749Z,43.37
2018-06-01T05:18:53.598Z,43.27
2018-06-01T05:19:53.581Z,43.46
2018-06-01T05:20:53.597Z,43.37
2018-06-01T05:21:53.521Z,43.27
2018-06-01T05:22:53.669Z,43.27
2018-06-01T05:23:53.451Z,43.27
2018-06-01T05:24:53.443Z,42.78
2018-06-01T05:25:53.449Z,42.76
2018-06-01T05:26:53.395Z,43.37
2018-06-01T05:27:53.382Z,42.49
2018-06-01T05:28:53.432Z,43.07
2018-06-01T05:29:53.321Z,42.59
2018-06-01T05:30:53.292Z,42.68
2018-06-01T05:31:53.261Z,42.59
2018-06-01T05:32:53.234Z,42.49
2018-06-01T05:33:53.322Z,42.68
2018-06-01T05:34:53.207Z,43.17
2018-06-01T05:35:53.145Z,42.20
2018-06-01T05:36:53.142Z,42.30
2018-06-01T05:37:53.119Z,42.40
2018-06-01T05:38:53.124Z,42.20
2018-06-01T05:39:53.076Z,42.20
2018-06-01T05:40:53.049Z,42.30
2018-06-01T05:41:53.015Z,41.72
2018-06-01T05:42:52.956Z,41.82
2018-06-01T05:43:53.060Z,42.10
2018-06-01T05:44:52.924Z,41.91
2018-06-01T05:45:52.890Z,41.91
2018-06-01T05:46:52.922Z,41.91
2018-06-01T05:47:52.888Z,41.91
2018-06-01T05:48:52.881Z,41.91
2018-06-01T05:49:52.855Z,41.82
2018-06-01T05:50:52.776Z,41.82
2018-06-01T05:51:52.771Z,41.91
2018-06-01T05:52:52.719Z,42.00
2018-06-01T05:53:52.736Z,42.00
2018-06-01T05:54:52.766Z,41.52
2018-06-01T05:55:52.734Z,41.42
2018-06-01T05:56:52.607Z,41.42
2018-06-01T05:57:52.603Z,41.42
2018-06-01T05:58:52.556Z,41.42
2018-06-01T05:59:52.536Z,42.00
2018-06-01T06:00:52.617Z,41.52
2018-06-01T06:01:52.476Z,41.91
2018-06-01T06:02:52.460Z,41.42
2018-06-01T06:03:52.437Z,41.52
2018-06-01T06:04:52.409Z,41.52
2018-06-01T06:05:52.365Z,41.62
2018-06-01T06:06:52.464Z,41.62
2018-06-01T06:07:52.333Z,41.42
2018-06-01T06:08:52.300Z,42.00
2018-06-01T06:09:52.284Z,41.52
2018-06-01T06:10:52.258Z,41.52
2018-06-01T06:11:52.382Z,41.52
2018-06-01T06:12:52.215Z,42.00
2018-06-01T06:13:52.208Z,41.82
2018-06-01T06:14:52.160Z,41.91
2018-06-01T06:15:52.105Z,41.79
2018-06-01T06:16:52.199Z,41.33
2018-06-01T06:17:52.082Z,41.42
2018-06-01T06:18:52.069Z,41.41
2018-06-01T06:19:52.123Z,41.42
2018-06-01T06:20:51.967Z,41.62
2018-06-01T06:21:52.096Z,41.62
2018-06-01T06:22:51.948Z,41.50
2018-06-01T06:23:51.915Z,41.99
2018-06-01T06:24:51.876Z,41.42
2018-06-01T06:25:51.890Z,41.50
2018-06-01T06:26:51.874Z,41.50
2018-06-01T06:27:51.921Z,41.89
2018-06-01T06:28:51.790Z,41.41
2018-06-01T06:29:51.756Z,41.79
2018-06-01T06:30:51.725Z,41.50
2018-06-01T06:31:51.710Z,41.89
2018-06-01T06:32:51.803Z,41.89
2018-06-01T06:33:51.651Z,41.41
2018-06-01T06:34:51.599Z,41.41
2018-06-01T06:35:51.595Z,41.60
2018-06-01T06:36:51.550Z,41.79
2018-06-01T06:37:51.638Z,41.04
2018-06-01T06:38:51.515Z,40.94
2018-06-01T06:39:51.527Z,40.84
2018-06-01T06:40:51.454Z,40.75
2018-06-01T06:41:51.444Z,40.92
2018-06-01T06:42:51.391Z,40.92
2018-06-01T06:43:51.491Z,40.92
2018-06-01T06:44:51.396Z,40.75
2018-06-01T06:45:51.344Z,40.83
2018-06-01T06:46:51.367Z,40.63
2018-06-01T06:47:51.294Z,41.14
2018-06-01T06:48:51.346Z,40.46
2018-06-01T06:49:51.265Z,41.24
2018-06-01T06:50:51.208Z,40.56
2018-06-01T06:51:51.163Z,41.14
2018-06-01T06:52:51.148Z,41.24
2018-06-01T06:53:51.238Z,41.24
2018-06-01T06:54:51.088Z,40.53
2018-06-01T06:55:51.089Z,41.14
2018-06-01T06:56:51.024Z,40.63
2018-06-01T06:57:51.021Z,40.65
2018-06-01T06:58:51.141Z,40.63
2018-06-01T06:59:50.956Z,41.04
2018-06-01T07:00:50.953Z,40.46
2018-06-01T07:01:50.917Z,40.94
2018-06-01T07:02:50.944Z,40.36
2018-06-01T07:03:50.928Z,40.56
2018-06-01T07:04:50.953Z,41.04
2018-06-01T07:05:50.797Z,40.46
2018-06-01T07:06:50.791Z,40.94
2018-06-01T07:07:50.865Z,41.04
2018-06-01T07:08:50.723Z,40.94
2018-06-01T07:09:50.797Z,40.83
2018-06-01T07:10:50.655Z,40.73
2018-06-01T07:11:50.669Z,40.84
2018-06-01T07:12:50.607Z,41.04
2018-06-01T07:13:50.586Z,41.11
2018-06-01T07:14:50.751Z,41.21
2018-06-01T07:15:50.551Z,41.24
2018-06-01T07:16:50.507Z,40.63
2018-06-01T07:17:50.503Z,40.53
2018-06-01T07:18:50.475Z,40.83
2018-06-01T07:19:50.429Z,40.92
2018-06-01T07:20:50.518Z,40.92
2018-06-01T07:21:50.401Z,40.53
2018-06-01T07:22:50.369Z,40.36
2018-06-01T07:23:50.374Z,40.26
2018-06-01T07:24:50.325Z,40.46
2018-06-01T07:25:50.312Z,40.53
2018-06-01T07:26:50.397Z,40.53
2018-06-01T07:27:50.292Z,40.83
2018-06-01T07:28:50.216Z,40.73
2018-06-01T07:29:50.187Z,40.83
2018-06-01T07:30:50.142Z,40.94
2018-06-01T07:31:50.217Z,40.26
2018-06-01T07:32:50.091Z,40.56
2018-06-01T07:33:50.084Z,40.56
2018-06-01T07:34:50.069Z,40.46
2018-06-01T07:35:50.045Z,40.46
2018-06-01T07:36:50.026Z,39.97
2018-06-01T07:37:50.106Z,39.97
2018-06-01T07:38:50.045Z,40.56
2018-06-01T07:39:49.903Z,40.56
2018-06-01T07:40:49.904Z,39.97
2018-06-01T07:41:49.854Z,40.65
2018-06-01T07:42:49.939Z,40.17
2018-06-01T07:43:49.839Z,40.56
2018-06-01T07:44:49.787Z,40.36
2018-06-01T07:45:49.823Z,40.00
2018-06-01T07:46:49.773Z,39.97
2018-06-01T07:47:49.815Z,40.36
2018-06-01T07:48:49.691Z,40.46
2018-06-01T07:49:49.656Z,40.26
2018-06-01T07:50:49.629Z,40.58
2018-06-01T07:51:49.607Z,40.48
2018-06-01T07:52:49.669Z,40.56
2018-06-01T07:53:49.563Z,40.46
2018-06-01T07:54:49.533Z,40.46
2018-06-01T07:55:49.489Z,40.26
2018-06-01T07:56:49.474Z,40.26
2018-06-01T07:57:49.461Z,40.75
2018-06-01T07:58:49.557Z,40.94
2018-06-01T07:59:49.377Z,40.75
2018-06-01T08:00:49.347Z,40.46
2018-06-01T08:01:49.365Z,40.65
2018-06-01T08:02:49.307Z,40.65
2018-06-01T08:03:49.301Z,40.65
2018-06-01T08:04:49.380Z,40.65
2018-06-01T08:05:49.245Z,40.65
2018-06-01T08:06:49.218Z,40.65
2018-06-01T08:07:49.236Z,40.56
2018-06-01T08:08:49.169Z,41.04
2018-06-01T08:09:49.298Z,40.94
2018-06-01T08:10:49.176Z,41.04
2018-06-01T08:11:49.108Z,41.04
2018-06-01T08:12:49.134Z,41.14
2018-06-01T08:13:49.034Z,41.04
2018-06-01T08:14:49.109Z,41.21
2018-06-01T08:15:49.074Z,41.24
2018-06-01T08:16:48.951Z,40.84
2018-06-01T08:17:48.923Z,41.11
2018-06-01T08:18:48.902Z,41.11
2018-06-01T08:19:48.891Z,41.24
2018-06-01T08:20:48.970Z,40.83
2018-06-01T08:21:48.844Z,40.65
2018-06-01T08:22:48.808Z,40.73
2018-06-01T08:23:48.779Z,40.84
2018-06-01T08:24:48.749Z,40.84
2018-06-01T08:25:48.809Z,40.75
2018-06-01T08:26:48.725Z,40.65
2018-06-01T08:27:48.670Z,40.94
2018-06-01T08:28:48.633Z,40.75
2018-06-01T08:29:48.618Z,40.84
2018-06-01T08:30:48.674Z,41.04
2018-06-01T08:31:48.572Z,40.46
2018-06-01T08:32:48.531Z,40.94
2018-06-01T08:33:48.532Z,40.56
2018-06-01T08:34:48.493Z,41.14
2018-06-01T08:35:48.445Z,40.84
2018-06-01T08:36:48.533Z,40.84
2018-06-01T08:37:48.417Z,40.94
2018-06-01T08:38:48.384Z,41.04
2018-06-01T08:39:48.356Z,41.02
2018-06-01T08:40:48.327Z,41.41
2018-06-01T08:41:48.296Z,41.33
2018-06-01T08:42:48.314Z,41.21
2018-06-01T08:43:48.252Z,41.70
2018-06-01T08:44:48.225Z,41.79
2018-06-01T08:45:48.228Z,41.70
2018-06-01T08:46:48.185Z,41.79
2018-06-01T08:47:48.196Z,41.70
2018-06-01T08:48:48.218Z,41.41
2018-06-01T08:49:48.096Z,41.70
2018-06-01T08:50:48.068Z,41.70
2018-06-01T08:51:48.045Z,41.79
2018-06-01T08:52:48.006Z,41.70
2018-06-01T08:53:48.086Z,41.70
2018-06-01T08:54:47.957Z,41.60
2018-06-01T08:55:47.911Z,41.31
2018-06-01T08:56:47.891Z,41.11
2018-06-01T08:57:47.871Z,41.50
2018-06-01T08:58:47.953Z,41.31
2018-06-01T08:59:47.836Z,41.41
2018-06-01T09:00:47.798Z,41.79
2018-06-01T09:01:47.779Z,41.70
2018-06-01T09:02:47.757Z,41.41
2018-06-01T09:03:47.830Z,41.31
2018-06-01T09:04:47.710Z,41.41
2018-06-01T09:05:47.672Z,41.11
2018-06-01T09:06:47.650Z,41.21
2018-06-01T09:07:47.621Z,41.14
2018-06-01T09:08:47.652Z,41.02
2018-06-01T09:09:47.570Z,41.24
2018-06-01T09:10:47.536Z,41.24
2018-06-01T09:11:47.515Z,41.41
2018-06-01T09:12:47.496Z,41.60
2018-06-01T09:13:47.462Z,41.60
2018-06-01T09:14:47.602Z,41.79
2018-06-01T09:15:47.422Z,41.70
2018-06-01T09:16:47.438Z,41.82
2018-06-01T09:17:47.353Z,41.62
2018-06-01T09:18:47.326Z,41.82
2018-06-01T09:19:47.297Z,41.72
2018-06-01T09:20:47.372Z,41.72
2018-06-01T09:21:47.237Z,41.62
2018-06-01T09:22:47.207Z,41.62
2018-06-01T09:23:47.190Z,41.42
2018-06-01T09:24:47.167Z,41.42
2018-06-01T09:25:47.199Z,41.42
2018-06-01T09:26:47.153Z,41.72
2018-06-01T09:27:47.077Z,41.91
2018-06-01T09:28:47.071Z,41.82
2018-06-01T09:29:47.020Z,41.89
2018-06-01T09:30:46.999Z,41.91
2018-06-01T09:31:47.079Z,41.79
2018-06-01T09:32:46.939Z,41.89
2018-06-01T09:33:46.925Z,41.89
2018-06-01T09:34:46.916Z,41.91
2018-06-01T09:35:46.887Z,42.00
2018-06-01T09:36:46.962Z,41.82
2018-06-01T09:37:46.811Z,42.00
2018-06-01T09:38:46.780Z,42.10
2018-06-01T09:39:46.761Z,42.10
2018-06-01T09:40:46.746Z,42.30
2018-06-01T09:41:46.821Z,42.47
2018-06-01T09:42:46.688Z,42.47
2018-06-01T09:43:46.679Z,42.37
2018-06-01T09:44:46.632Z,42.57
2018-06-01T09:45:46.619Z,42.37
2018-06-01T09:46:46.699Z,42.76
2018-06-01T09:47:46.558Z,43.15
2018-06-01T09:48:46.541Z,43.34
2018-06-01T09:49:46.519Z,42.76
2018-06-01T09:50:46.497Z,43.34
2018-06-01T09:51:46.474Z,43.34
2018-06-01T09:52:46.539Z,43.15
2018-06-01T09:53:46.394Z,42.86
2018-06-01T09:54:46.371Z,42.96
2018-06-01T09:55:46.371Z,43.15
2018-06-01T09:56:46.331Z,43.34
2018-06-01T09:57:46.299Z,43.24
2018-06-01T09:58:46.364Z,42.96
2018-06-01T09:59:46.267Z,43.05
2018-06-01T10:00:46.232Z,43.34
2018-06-01T10:01:46.181Z,43.24
2018-06-01T10:02:46.271Z,43.34
2018-06-01T10:03:46.247Z,43.34
2018-06-01T10:04:46.097Z,43.34
2018-06-01T10:05:46.123Z,43.34
2018-06-01T10:06:46.073Z,43.44
2018-06-01T10:07:46.049Z,43.44
2018-06-01T10:08:46.128Z,43.44
2018-06-01T10:09:45.982Z,43.34
2018-06-01T10:10:45.947Z,43.44
2018-06-01T10:11:45.918Z,43.15
2018-06-01T10:12:45.895Z,43.54
2018-06-01T10:13:45.976Z,43.44
2018-06-01T10:14:45.864Z,43.44
2018-06-01T10:15:45.809Z,43.54
2018-06-01T10:16:45.796Z,43.54
2018-06-01T10:17:45.778Z,43.54
2018-06-01T10:18:45.854Z,43.63
2018-06-01T10:19:45.708Z,43.73
2018-06-01T10:20:45.754Z,43.73
2018-06-01T10:21:45.676Z,43.63
2018-06-01T10:22:45.639Z,44.02
2018-06-01T10:23:45.752Z,43.73
2018-06-01T10:24:45.603Z,43.82
2018-06-01T10:25:45.634Z,43.82
2018-06-01T10:26:45.543Z,43.82
2018-06-01T10:27:45.517Z,44.21
2018-06-01T10:28:45.520Z,44.21
2018-06-01T10:29:45.523Z,44.12
2018-06-01T10:30:45.427Z,44.21
2018-06-01T10:31:45.415Z,44.31
2018-06-01T10:32:45.399Z,44.12
2018-06-01T10:33:45.359Z,44.50
2018-06-01T10:34:45.338Z,44.31
2018-06-01T10:35:45.408Z,44.50
2018-06-01T10:36:45.262Z,44.79
2018-06-01T10:37:45.268Z,44.57
2018-06-01T10:38:45.230Z,44.98
2018-06-01T10:39:45.190Z,44.67
2018-06-01T10:40:45.269Z,44.79
2018-06-01T10:41:45.134Z,44.89
2018-06-01T10:42:45.110Z,44.79
2018-06-01T10:43:45.091Z,44.89
2018-06-01T10:44:45.046Z,45.18
2018-06-01T10:45:45.090Z,44.89
2018-06-01T10:46:45.013Z,44.60
2018-06-01T10:47:44.981Z,44.77
2018-06-01T10:48:44.952Z,44.98
2018-06-01T10:49:44.942Z,44.60
2018-06-01T10:50:45.020Z,44.50
2018-06-01T10:51:44.882Z,44.40
2018-06-01T10:52:44.863Z,44.50
2018-06-01T10:53:44.812Z,44.89
2018-06-01T10:54:44.803Z,45.18
2018-06-01T10:55:44.873Z,45.18
2018-06-01T10:56:44.762Z,44.98
2018-06-01T10:57:44.729Z,45.28
2018-06-01T10:58:44.720Z,45.47
2018-06-01T10:59:44.684Z,45.37
2018-06-01T11:00:44.743Z,45.47
2018-06-01T11:01:44.653Z,45.37
2018-06-01T11:02:44.570Z,45.47
2018-06-01T11:03:44.566Z,45.76
2018-06-01T11:04:44.528Z,45.86
2018-06-01T11:05:44.510Z,45.66
2018-06-01T11:06:44.580Z,45.86
2018-06-01T11:07:44.495Z,45.86
2018-06-01T11:08:44.435Z,45.95
2018-06-01T11:09:44.390Z,45.95
2018-06-01T11:10:44.392Z,46.44
2018-06-01T11:11:44.372Z,46.53
2018-06-01T11:12:44.411Z,46.44
2018-06-01T11:13:44.346Z,46.44
2018-06-01T11:14:44.269Z,46.34
2018-06-01T11:15:44.255Z,46.25
2018-06-01T11:16:44.234Z,46.15
2018-06-01T11:17:44.299Z,46.25
2018-06-01T11:18:44.176Z,46.15
2018-06-01T11:19:44.178Z,46.25
2018-06-01T11:20:44.148Z,46.25
2018-06-01T11:21:44.099Z,46.44
2018-06-01T11:22:44.155Z,46.73
2018-06-01T11:23:44.078Z,46.80
2018-06-01T11:24:43.994Z,47.31
2018-06-01T11:25:43.980Z,47.21
2018-06-01T11:26:43.955Z,47.41
2018-06-01T11:27:44.040Z,47.31
2018-06-01T11:28:43.931Z,47.11
2018-06-01T11:29:43.906Z,46.73
2018-06-01T11:30:43.846Z,46.92
2018-06-01T11:31:43.832Z,47.41
2018-06-01T11:32:43.933Z,47.31
2018-06-01T11:33:43.781Z,47.31
2018-06-01T11:34:43.727Z,47.21
2018-06-01T11:35:43.749Z,47.11
2018-06-01T11:36:43.684Z,47.21
2018-06-01T11:37:43.758Z,47.21
2018-06-01T11:38:43.699Z,47.21
2018-06-01T11:39:44.082Z,47.33
2018-06-01T11:40:43.567Z,47.41
2018-06-01T11:41:43.554Z,47.33
2018-06-01T11:42:43.603Z,47.43
2018-06-01T11:43:43.614Z,47.33
2018-06-01T11:44:43.557Z,47.24
2018-06-01T11:45:43.494Z,47.14
2018-06-01T11:46:43.417Z,47.43
2018-06-01T11:47:43.507Z,47.14
2018-06-01T11:48:43.398Z,47.26
2018-06-01T11:49:43.616Z,47.36
2018-06-01T11:50:43.351Z,47.45
2018-06-01T11:51:43.352Z,47.36
2018-06-01T11:52:43.291Z,47.16
2018-06-01T11:53:43.367Z,47.26
2018-06-01T11:54:43.262Z,47.36
2018-06-01T11:55:43.193Z,47.57
2018-06-01T11:56:43.147Z,46.80
2018-06-01T11:57:43.129Z,46.89
2018-06-01T11:58:43.123Z,47.02
2018-06-01T11:59:43.183Z,47.67
2018-06-01T12:00:43.060Z,47.40
2018-06-01T12:01:43.066Z,48.66
2018-06-01T12:02:43.045Z,49.54
2018-06-01T12:03:43.006Z,50.70
2018-06-01T12:04:43.166Z,50.99
2018-06-01T12:05:42.946Z,52.56
2018-06-01T12:06:42.943Z,53.24
2018-06-01T12:07:43.011Z,54.80
2018-06-01T12:08:42.882Z,55.47
2018-06-01T12:09:42.923Z,57.90
2018-06-01T12:10:42.844Z,57.80
2018-06-01T12:11:42.772Z,57.61
2018-06-01T12:12:42.760Z,59.84
2018-06-01T12:13:42.730Z,61.19
2018-06-01T12:14:42.754Z,60.42
2018-06-01T12:15:42.775Z,59.77
2018-06-01T12:16:42.654Z,59.77
2018-06-01T12:17:42.725Z,60.87
2018-06-01T12:18:42.593Z,66.11
2018-06-01T12:19:42.582Z,71.48
2018-06-01T12:20:42.652Z,77.15
2018-06-01T12:21:42.497Z,79.39
2018-06-01T12:22:42.494Z,89.25
2018-06-01T12:23:42.481Z,92.07
2018-06-01T12:24:42.433Z,90.95
2018-06-01T12:25:42.426Z,92.27
2018-06-01T12:26:42.468Z,93.57
2018-06-01T12:27:42.381Z,94.11
2018-06-01T12:28:42.344Z,95.52
2018-06-01T12:29:42.346Z,96.06
2018-06-01T12:30:42.275Z,97.80
2018-06-01T12:31:42.258Z,99.99
2018-06-01T12:32:42.327Z,99.99
2018-06-01T12:33:42.224Z,99.99
2018-06-01T12:34:42.197Z,99.99
2018-06-01T12:35:42.152Z,99.37
2018-06-01T12:36:42.148Z,99.99
2018-06-01T12:37:42.191Z,99.99
2018-06-01T12:38:42.094Z,99.99
2018-06-01T12:39:42.111Z,99.27
2018-06-01T12:40:42.048Z,99.07
2018-06-01T12:41:42.053Z,99.99
2018-06-01T12:42:42.098Z,97.56
2018-06-01T12:43:42.029Z,96.98
2018-06-01T12:44:42.014Z,96.30
2018-06-01T12:45:41.913Z,97.76
2018-06-01T12:46:41.889Z,96.55
2018-06-01T12:47:42.008Z,95.67
2018-06-01T12:48:41.830Z,95.86
2018-06-01T12:49:41.810Z,94.65
2018-06-01T12:50:41.873Z,92.32
2018-06-01T12:51:41.771Z,92.22
2018-06-01T12:52:41.799Z,92.66